createdAt,value
2017-09-18T00:01:18.336Z,13.00
2017-09-18T00:03:46.582Z,13.00
2017-09-18T00:06:14.825Z,12.90
2017-09-18T00:08:43.485Z,12.80
2017-09-18T00:11:11.730Z,12.90
2017-09-18T00:13:40.779Z,12.80
2017-09-18T00:16:09.042Z,12.80
2017-09-18T00:18:37.278Z,12.70
2017-09-18T00:21:06.286Z,12.70
2017-09-18T00:23:34.551Z,12.70
2017-09-18T00:26:03.562Z,12.80
2017-09-18T00:28:31.806Z,12.70
2017-09-18T00:31:00.434Z,12.80
2017-09-18T00:33:28.676Z,12.80
2017-09-18T00:35:57.682Z,12.60
2017-09-18T00:38:25.952Z,12.50
2017-09-18T00:40:54.962Z,12.40
2017-09-18T00:43:23.209Z,12.40
2017-09-18T00:45:52.242Z,12.30
2017-09-18T00:48:20.482Z,12.20
2017-09-18T00:50:48.722Z,12.20
2017-09-18T00:53:17.318Z,12.10
2017-09-18T00:55:45.567Z,12.00
2017-09-18T00:58:13.814Z,12.00
2017-09-18T01:00:42.163Z,11.90
2017-09-18T01:03:10.606Z,11.90
2017-09-18T01:05:39.100Z,11.90
2017-09-18T01:08:07.342Z,11.90
2017-09-18T01:10:35.585Z,11.90
2017-09-18T01:13:03.825Z,11.90
2017-09-18T01:15:32.798Z,11.90
2017-09-18T01:18:01.037Z,11.90
2017-09-18T01:20:30.046Z,11.80
2017-09-18T01:22:58.315Z,11.80
2017-09-18T01:25:26.554Z,11.80
2017-09-18T01:27:54.797Z,11.80
2017-09-18T01:30:23.108Z,11.70
2017-09-18T01:32:51.342Z,11.70
2017-09-18T01:35:19.585Z,11.70
2017-09-18T01:37:48.035Z,11.70
2017-09-18T01:40:16.286Z,11.60
2017-09-18T01:42:44.521Z,11.60
2017-09-18T01:45:13.555Z,11.60
2017-09-18T01:47:41.789Z,11.60
2017-09-18T01:50:10.030Z,11.60
2017-09-18T01:52:38.289Z,11.60
2017-09-18T01:55:06.531Z,11.50
2017-09-18T01:57:34.772Z,11.50
2017-09-18T02:00:03.317Z,11.50
2017-09-18T02:02:31.566Z,11.40
2017-09-18T02:05:01.226Z,11.30
2017-09-18T02:07:29.482Z,11.30
2017-09-18T02:09:57.734Z,11.30
2017-09-18T02:12:25.974Z,11.30
2017-09-18T02:14:54.242Z,11.20
2017-09-18T02:17:22.478Z,11.20
2017-09-18T02:19:50.722Z,11.10
2017-09-18T02:22:19.347Z,11.10
2017-09-18T02:24:47.598Z,11.10
2017-09-18T02:27:15.842Z,11.10
2017-09-18T02:29:44.142Z,11.00
2017-09-18T02:32:13.154Z,11.00
2017-09-18T02:34:41.397Z,10.90
2017-09-18T02:37:09.882Z,10.90
2017-09-18T02:39:38.116Z,10.90
2017-09-18T02:42:06.362Z,10.90
2017-09-18T02:44:35.075Z,11.00
2017-09-18T02:47:03.378Z,11.00
2017-09-18T02:49:31.623Z,10.90
2017-09-18T02:51:59.877Z,10.90
2017-09-18T02:54:28.122Z,10.90
2017-09-18T02:56:56.365Z,10.90
2017-09-18T02:59:24.627Z,10.90
2017-09-18T03:01:52.874Z,10.80
2017-09-18T03:04:21.869Z,10.80
2017-09-18T03:06:51.311Z,10.80
2017-09-18T03:09:19.560Z,10.80
2017-09-18T03:11:47.807Z,10.80
2017-09-18T03:14:16.894Z,10.80
2017-09-18T03:16:45.134Z,10.70
2017-09-18T03:19:13.380Z,10.80
2017-09-18T03:21:41.651Z,10.70
2017-09-18T03:24:09.890Z,10.70
2017-09-18T03:26:38.133Z,10.70
2017-09-18T03:29:06.519Z,10.70
2017-09-18T03:31:34.766Z,10.70
2017-09-18T03:34:03.007Z,10.70
2017-09-18T03:36:31.321Z,10.70
2017-09-18T03:39:00.314Z,10.70
2017-09-18T03:41:28.606Z,10.70
2017-09-18T03:43:56.853Z,10.70
2017-09-18T03:46:25.098Z,10.70
2017-09-18T03:48:53.352Z,10.70
2017-09-18T03:51:22.222Z,10.60
2017-09-18T03:53:50.467Z,10.60
2017-09-18T03:56:19.479Z,10.60
2017-09-18T03:58:47.746Z,10.60
2017-09-18T04:01:15.986Z,10.60
2017-09-18T04:03:44.234Z,10.70
2017-09-18T04:06:12.489Z,10.70
2017-09-18T04:08:41.133Z,10.60
2017-09-18T04:11:10.147Z,10.70
2017-09-18T04:13:39.430Z,10.70
2017-09-18T04:16:07.778Z,10.70
2017-09-18T04:18:36.022Z,10.70
2017-09-18T04:21:04.290Z,10.80
2017-09-18T04:23:32.532Z,10.80
2017-09-18T04:26:00.994Z,10.80
2017-09-18T04:28:29.293Z,10.90
2017-09-18T04:30:57.538Z,10.90
2017-09-18T04:33:25.778Z,10.90
2017-09-18T04:35:54.282Z,10.90
2017-09-18T04:38:22.521Z,11.00
2017-09-18T04:40:51.529Z,11.00
2017-09-18T04:43:19.983Z,11.00
2017-09-18T04:45:48.292Z,11.00
2017-09-18T04:48:16.550Z,11.00
2017-09-18T04:50:45.583Z,11.00
2017-09-18T04:53:13.835Z,11.00
2017-09-18T04:55:42.082Z,11.00
2017-09-18T04:58:10.613Z,11.00
2017-09-18T05:00:38.854Z,10.90
2017-09-18T05:03:07.858Z,10.80
2017-09-18T05:05:36.118Z,10.80
2017-09-18T05:08:04.362Z,10.80
2017-09-18T05:10:32.870Z,10.80
2017-09-18T05:13:01.898Z,10.70
2017-09-18T05:15:30.145Z,10.70
2017-09-18T05:17:59.190Z,10.80
2017-09-18T05:20:27.874Z,10.80
2017-09-18T05:22:56.122Z,10.90
2017-09-18T05:25:24.749Z,10.90
2017-09-18T05:27:53.129Z,10.90
2017-09-18T05:30:21.362Z,11.00
2017-09-18T05:32:49.602Z,11.00
2017-09-18T05:35:17.866Z,11.10
2017-09-18T05:37:46.113Z,11.10
2017-09-18T05:40:14.370Z,11.20
2017-09-18T05:42:42.988Z,11.20
2017-09-18T05:45:11.210Z,11.40
2017-09-18T05:47:39.453Z,11.40
2017-09-18T05:50:07.726Z,11.60
2017-09-18T05:52:35.965Z,11.60
2017-09-18T05:55:04.222Z,11.70
2017-09-18T05:57:33.249Z,11.90
2017-09-18T06:00:01.489Z,11.80
2017-09-18T06:02:30.502Z,12.00
2017-09-18T06:04:58.862Z,12.00
2017-09-18T06:07:27.875Z,12.00
2017-09-18T06:09:56.121Z,12.10
2017-09-18T06:12:25.044Z,12.10
2017-09-18T06:14:53.288Z,12.10
2017-09-18T06:17:21.529Z,12.10
2017-09-18T06:19:49.792Z,12.10
2017-09-18T06:22:18.030Z,12.10
2017-09-18T06:24:46.269Z,12.10
2017-09-18T06:27:14.673Z,12.10
2017-09-18T06:29:43.688Z,12.10
2017-09-18T06:32:12.690Z,12.20
2017-09-18T06:34:40.997Z,12.20
2017-09-18T06:37:09.389Z,12.30
2017-09-18T06:39:37.623Z,12.30
2017-09-18T06:42:05.903Z,12.30
2017-09-18T06:44:34.146Z,12.30
2017-09-18T06:47:02.399Z,12.30
2017-09-18T06:49:31.358Z,12.40
2017-09-18T06:51:59.598Z,12.50
2017-09-18T06:54:28.610Z,12.50
2017-09-18T06:56:56.880Z,12.50
2017-09-18T06:59:25.114Z,12.50
2017-09-18T07:01:54.276Z,12.60
2017-09-18T07:04:22.562Z,12.60
2017-09-18T07:06:50.802Z,12.60
2017-09-18T07:09:19.816Z,12.70
2017-09-18T07:11:48.167Z,12.70
2017-09-18T07:14:17.574Z,12.90
2017-09-18T07:16:46.582Z,12.90
2017-09-18T07:19:14.862Z,12.90
2017-09-18T07:21:43.106Z,12.90
2017-09-18T07:24:11.347Z,12.80
2017-09-18T07:26:39.614Z,12.80
2017-09-18T07:29:07.862Z,12.80
2017-09-18T07:31:36.102Z,12.90
2017-09-18T07:34:04.957Z,13.00
2017-09-18T07:36:33.191Z,13.10
2017-09-18T07:39:02.206Z,13.30
2017-09-18T07:41:30.483Z,13.30
2017-09-18T07:43:58.738Z,13.30
2017-09-18T07:46:27.762Z,13.40
2017-09-18T07:48:56.031Z,13.40
2017-09-18T07:51:24.273Z,13.40
2017-09-18T07:53:52.527Z,13.50
2017-09-18T07:56:21.126Z,13.70
2017-09-18T07:58:49.368Z,13.60
2017-09-18T08:01:17.622Z,13.50
2017-09-18T08:03:45.892Z,13.60
2017-09-18T08:06:14.138Z,13.70
2017-09-18T08:08:42.381Z,13.80
2017-09-18T08:11:10.643Z,13.90
2017-09-18T08:13:38.935Z,14.00
2017-09-18T08:16:07.629Z,14.00
2017-09-18T08:18:36.114Z,14.10
2017-09-18T08:21:04.389Z,14.20
2017-09-18T08:23:32.771Z,14.20
2017-09-18T08:26:01.177Z,14.30
2017-09-18T08:28:30.195Z,14.30
2017-09-18T08:30:58.434Z,14.30
2017-09-18T08:33:26.737Z,14.30
2017-09-18T08:35:54.967Z,14.40
2017-09-18T08:38:23.201Z,14.50
2017-09-18T08:40:51.598Z,14.50
2017-09-18T08:43:19.838Z,14.50
2017-09-18T08:45:48.889Z,14.50
2017-09-18T08:48:17.136Z,14.50
2017-09-18T08:50:45.374Z,14.70
2017-09-18T08:53:13.615Z,14.80
2017-09-18T08:55:42.022Z,15.10
2017-09-18T08:58:10.257Z,14.90
2017-09-18T09:00:38.502Z,14.80
2017-09-18T09:03:06.843Z,14.80
2017-09-18T09:05:35.086Z,14.80
2017-09-18T09:08:03.322Z,14.90
2017-09-18T09:10:32.353Z,14.90
2017-09-18T09:13:00.599Z,14.90
2017-09-18T09:15:29.606Z,15.00
2017-09-18T09:17:58.397Z,15.00
2017-09-18T09:20:26.638Z,15.20
2017-09-18T09:22:54.882Z,15.30
2017-09-18T09:25:23.565Z,15.60
2017-09-18T09:27:51.805Z,15.90
2017-09-18T09:30:20.058Z,16.10
2017-09-18T09:32:48.318Z,16.20
2017-09-18T09:35:16.675Z,16.20
2017-09-18T09:37:44.918Z,16.20
2017-09-18T09:40:13.193Z,16.10
2017-09-18T09:42:41.445Z,16.10
2017-09-18T09:45:09.690Z,16.10
2017-09-18T09:47:38.177Z,16.10
2017-09-18T09:50:06.417Z,16.00
2017-09-18T09:52:34.650Z,16.00
2017-09-18T09:55:02.922Z,16.10
2017-09-18T09:57:31.168Z,16.20
2017-09-18T09:59:59.408Z,16.20
2017-09-18T10:02:27.679Z,16.20
2017-09-18T10:04:55.914Z,16.30
2017-09-18T10:07:24.167Z,16.30
2017-09-18T10:09:52.566Z,16.40
2017-09-18T10:12:20.814Z,16.40
2017-09-18T10:14:49.202Z,16.30
2017-09-18T10:17:17.470Z,16.40
2017-09-18T10:19:45.802Z,16.50
2017-09-18T10:22:14.045Z,16.60
2017-09-18T10:24:42.309Z,16.30
2017-09-18T10:27:10.547Z,16.30
2017-09-18T10:29:38.871Z,16.40
2017-09-18T10:32:07.346Z,16.50
2017-09-18T10:34:35.573Z,16.60
2017-09-18T10:37:03.818Z,16.70
2017-09-18T10:39:32.091Z,16.70
2017-09-18T10:42:00.422Z,16.80
2017-09-18T10:44:28.670Z,16.80
2017-09-18T10:46:57.700Z,17.20
2017-09-18T10:49:25.978Z,17.10
2017-09-18T10:51:54.231Z,17.40
2017-09-18T10:54:22.631Z,17.80
2017-09-18T10:56:50.878Z,18.10
2017-09-18T10:59:19.120Z,18.60
2017-09-18T11:01:47.380Z,19.20
2017-09-18T11:04:15.694Z,19.80
2017-09-18T11:06:43.943Z,20.10
2017-09-18T11:09:12.203Z,19.90
2017-09-18T11:11:40.453Z,19.60
2017-09-18T11:14:08.685Z,19.30
2017-09-18T11:16:37.543Z,18.70
2017-09-18T11:19:05.812Z,18.50
2017-09-18T11:21:34.235Z,18.40
2017-09-18T11:24:03.317Z,18.60
2017-09-18T11:26:31.554Z,18.60
2017-09-18T11:28:59.797Z,19.20
2017-09-18T11:31:30.590Z,20.50
2017-09-18T11:33:59.862Z,20.50
2017-09-18T11:36:28.111Z,20.50
2017-09-18T11:38:57.686Z,19.80
2017-09-18T11:41:26.022Z,19.80
2017-09-18T11:43:55.771Z,19.90
2017-09-18T11:46:24.018Z,20.10
2017-09-18T11:48:52.253Z,20.50
2017-09-18T11:51:21.268Z,20.50
2017-09-18T11:53:50.285Z,20.30
2017-09-18T11:56:19.294Z,19.50
2017-09-18T11:58:47.542Z,19.50
2017-09-18T12:01:16.042Z,19.30
2017-09-18T12:03:44.289Z,19.00
2017-09-18T12:06:12.525Z,18.70
2017-09-18T12:08:40.794Z,18.80
2017-09-18T12:11:09.063Z,18.90
2017-09-18T12:13:37.314Z,18.90
2017-09-18T12:16:05.590Z,19.00
2017-09-18T12:18:34.002Z,19.60
2017-09-18T12:21:02.267Z,20.40
2017-09-18T12:23:31.797Z,21.60
2017-09-18T12:26:00.047Z,23.20
2017-09-18T12:28:30.295Z,23.90
2017-09-18T12:30:58.706Z,23.80
2017-09-18T12:33:27.722Z,20.90
2017-09-18T12:35:56.005Z,20.80
2017-09-18T12:38:24.269Z,20.20
2017-09-18T12:40:52.505Z,20.00
2017-09-18T12:43:20.751Z,19.90
2017-09-18T12:45:49.327Z,19.70
2017-09-18T12:48:17.582Z,19.50
2017-09-18T12:50:45.830Z,19.00
2017-09-18T12:53:15.060Z,17.30
2017-09-18T12:55:44.054Z,16.80
2017-09-18T12:58:12.298Z,16.80
2017-09-18T13:00:40.565Z,16.50
2017-09-18T13:03:08.833Z,16.40
2017-09-18T13:05:37.073Z,16.20
2017-09-18T13:08:05.676Z,16.10
2017-09-18T13:10:33.932Z,15.90
2017-09-18T13:13:02.349Z,15.90
2017-09-18T13:15:30.766Z,15.80
2017-09-18T13:18:00.959Z,15.80
2017-09-18T13:20:29.198Z,15.80
2017-09-18T13:22:57.463Z,15.80
2017-09-18T13:25:26.387Z,15.80
2017-09-18T13:27:54.781Z,15.90
2017-09-18T13:30:23.117Z,16.00
2017-09-18T13:32:51.713Z,16.20
2017-09-18T13:35:19.946Z,16.60
2017-09-18T13:37:49.281Z,18.20
2017-09-18T13:40:17.610Z,18.20
2017-09-18T13:42:45.850Z,18.90
2017-09-18T13:45:14.117Z,19.30
2017-09-18T13:47:42.365Z,19.20
2017-09-18T13:50:10.613Z,18.90
2017-09-18T13:52:39.254Z,18.60
2017-09-18T13:55:07.876Z,18.30
2017-09-18T13:57:37.413Z,18.00
2017-09-18T14:00:06.529Z,17.50
2017-09-18T14:02:36.606Z,17.50
2017-09-18T14:05:06.246Z,17.30
2017-09-18T14:07:34.526Z,17.30
2017-09-18T14:10:02.784Z,17.30
2017-09-18T14:12:31.879Z,17.10
2017-09-18T14:15:00.315Z,17.10
2017-09-18T14:17:28.538Z,17.00
2017-09-18T14:19:57.546Z,17.00
2017-09-18T14:22:25.805Z,17.00
2017-09-18T14:24:54.111Z,17.10
2017-09-18T14:27:22.705Z,17.70
2017-09-18T14:29:50.961Z,18.30
2017-09-18T14:32:19.208Z,19.10
2017-09-18T14:34:47.492Z,20.90
2017-09-18T14:37:16.082Z,23.20
2017-09-18T14:39:44.300Z,25.20
2017-09-18T14:42:12.541Z,26.10
2017-09-18T14:44:41.566Z,24.10
2017-09-18T14:47:09.801Z,24.10
2017-09-18T14:49:38.042Z,23.20
2017-09-18T14:52:06.313Z,22.50
2017-09-18T14:54:34.562Z,21.70
2017-09-18T14:57:02.797Z,21.00
2017-09-18T14:59:32.005Z,22.20
2017-09-18T15:02:00.238Z,22.20
2017-09-18T15:04:28.474Z,22.40
2017-09-18T15:06:56.742Z,22.10
2017-09-18T15:09:25.742Z,20.40
2017-09-18T15:11:53.984Z,20.40
2017-09-18T15:14:22.253Z,19.80
2017-09-18T15:16:50.489Z,19.40
2017-09-18T15:19:18.734Z,19.00
2017-09-18T15:21:47.352Z,18.80
2017-09-18T15:24:15.590Z,18.60
2017-09-18T15:26:43.825Z,18.50
2017-09-18T15:29:12.613Z,18.40
2017-09-18T15:31:40.890Z,18.40
2017-09-18T15:34:09.217Z,18.30
2017-09-18T15:36:37.577Z,18.20
2017-09-18T15:39:06.751Z,18.00
2017-09-18T15:41:34.981Z,18.00
2017-09-18T15:44:03.426Z,17.90
2017-09-18T15:46:31.713Z,17.70
2017-09-18T15:49:00.713Z,17.40
2017-09-18T15:51:29.746Z,17.20
2017-09-18T15:53:57.982Z,17.20
2017-09-18T15:56:26.993Z,16.60
2017-09-18T15:58:55.258Z,16.60
2017-09-18T16:01:23.503Z,16.50
2017-09-18T16:03:51.864Z,16.50
2017-09-18T16:06:20.759Z,16.40
2017-09-18T16:08:48.994Z,16.30
2017-09-18T16:11:17.229Z,16.00
2017-09-18T16:13:45.505Z,15.70
2017-09-18T16:16:13.749Z,15.50
2017-09-18T16:18:41.994Z,15.30
2017-09-18T16:21:11.123Z,15.10
2017-09-18T16:23:39.610Z,15.00
2017-09-18T16:26:07.946Z,15.00
2017-09-18T16:28:37.033Z,15.00
2017-09-18T16:31:05.626Z,15.00
2017-09-18T16:33:34.623Z,15.10
2017-09-18T16:36:02.990Z,15.10
2017-09-18T16:38:32.011Z,15.20
2017-09-18T16:41:00.245Z,15.20
2017-09-18T16:43:28.904Z,15.40
2017-09-18T16:45:58.326Z,15.50
2017-09-18T16:48:26.697Z,15.50
2017-09-18T16:50:55.141Z,15.40
2017-09-18T16:53:23.454Z,15.40
2017-09-18T16:55:52.774Z,15.40
2017-09-18T16:58:21.516Z,15.50
2017-09-18T17:00:49.814Z,15.50
2017-09-18T17:03:18.218Z,15.40
2017-09-18T17:05:46.690Z,15.30
2017-09-18T17:08:14.959Z,15.10
2017-09-18T17:10:43.344Z,15.00
2017-09-18T17:13:11.908Z,14.80
2017-09-18T17:15:40.218Z,14.70
2017-09-18T17:18:08.492Z,14.60
2017-09-18T17:20:37.794Z,14.50
2017-09-18T17:23:06.155Z,14.40
2017-09-18T17:25:34.523Z,14.30
2017-09-18T17:28:02.937Z,14.30
2017-09-18T17:30:33.150Z,14.10
2017-09-18T17:33:02.119Z,14.10
2017-09-18T17:35:30.646Z,14.00
2017-09-18T17:38:01.205Z,14.00
2017-09-18T17:40:30.461Z,13.70
2017-09-18T17:42:59.675Z,13.70
2017-09-18T17:45:28.694Z,13.60
2017-09-18T17:47:57.013Z,13.60
2017-09-18T17:50:25.289Z,13.60
2017-09-18T17:52:53.774Z,13.60
2017-09-18T17:55:22.153Z,13.50
2017-09-18T17:57:50.727Z,13.40
2017-09-18T18:00:22.890Z,13.40
2017-09-18T18:02:51.297Z,13.30
2017-09-18T18:05:19.645Z,13.20
2017-09-18T18:07:48.029Z,13.20
2017-09-18T18:10:16.454Z,13.10
2017-09-18T18:12:45.449Z,13.00
2017-09-18T18:15:13.701Z,12.90
2017-09-18T18:17:42.266Z,12.90
2017-09-18T18:20:10.534Z,12.90
2017-09-18T18:22:38.808Z,12.80
2017-09-18T18:25:08.291Z,12.80
2017-09-18T18:27:36.641Z,12.80
2017-09-18T18:30:06.826Z,12.70
2017-09-18T18:32:39.490Z,12.70
2017-09-18T18:35:08.505Z,12.70
2017-09-18T18:37:36.749Z,12.60
2017-09-18T18:40:05.086Z,12.70
2017-09-18T18:42:36.402Z,12.60
2017-09-18T18:45:04.641Z,12.60
2017-09-18T18:47:32.949Z,12.60
2017-09-18T18:50:01.166Z,12.50
2017-09-18T18:52:30.182Z,12.50
2017-09-18T18:54:58.621Z,12.50
2017-09-18T18:57:27.043Z,12.50
2017-09-18T18:59:56.306Z,12.50
2017-09-18T19:02:26.630Z,12.60
2017-09-18T19:06:40.273Z,12.60
2017-09-18T19:09:08.545Z,12.60
2017-09-18T19:11:36.797Z,12.60
2017-09-18T19:14:05.074Z,12.60
2017-09-18T19:16:33.795Z,12.60
2017-09-18T19:19:02.821Z,12.50
2017-09-18T19:21:31.821Z,12.40
2017-09-18T19:24:00.244Z,12.40
2017-09-18T19:26:28.479Z,12.40
2017-09-18T19:28:56.722Z,12.40
2017-09-18T19:31:25.006Z,12.40
2017-09-18T19:33:54.016Z,12.50
2017-09-18T19:36:22.657Z,12.50
2017-09-18T19:38:50.937Z,12.50
2017-09-18T19:41:19.205Z,12.50
2017-09-18T19:43:47.448Z,12.60
2017-09-18T19:46:15.953Z,12.60
2017-09-18T19:48:45.162Z,12.60
2017-09-18T19:51:13.529Z,12.60
2017-09-18T19:53:42.865Z,12.60
2017-09-18T19:56:11.874Z,12.70
2017-09-18T19:58:40.877Z,12.70
2017-09-18T20:01:09.221Z,12.70
2017-09-18T20:03:37.469Z,12.70
2017-09-18T20:06:05.713Z,12.70
2017-09-18T20:08:34.110Z,12.70
2017-09-18T20:11:02.426Z,12.70
2017-09-18T20:13:30.825Z,12.70
2017-09-18T20:15:59.866Z,12.60
2017-09-18T20:18:28.179Z,12.60
2017-09-18T20:20:57.478Z,12.60
2017-09-18T20:23:27.762Z,12.60
2017-09-18T20:25:56.076Z,12.60
2017-09-18T20:28:24.452Z,12.60
2017-09-18T20:30:52.902Z,12.60
2017-09-18T20:33:21.214Z,12.60
2017-09-18T20:35:49.578Z,12.60
2017-09-18T20:38:18.150Z,12.60
2017-09-18T20:40:46.393Z,12.60
2017-09-18T20:43:14.633Z,12.60
2017-09-18T20:45:42.981Z,12.60
2017-09-18T20:48:12.418Z,12.60
2017-09-18T20:50:40.666Z,12.60
2017-09-18T20:53:08.989Z,12.70
2017-09-18T20:55:38.002Z,12.60
2017-09-18T20:58:06.229Z,12.60
2017-09-18T21:00:34.498Z,12.60
2017-09-18T21:03:02.737Z,12.60
2017-09-18T21:05:30.993Z,12.60
2017-09-18T21:08:00.041Z,12.60
2017-09-18T21:10:28.284Z,12.60
2017-09-18T21:12:56.530Z,12.50
2017-09-18T21:15:26.181Z,12.50
2017-09-18T21:17:54.430Z,12.50
2017-09-18T21:20:23.438Z,12.50
2017-09-18T21:22:51.717Z,12.50
2017-09-18T21:25:21.164Z,12.50
2017-09-18T21:27:49.410Z,12.40
2017-09-18T21:30:17.702Z,12.40
2017-09-18T21:32:45.946Z,12.40
2017-09-18T21:35:14.179Z,12.40
2017-09-18T21:37:42.831Z,12.40
2017-09-18T21:40:11.462Z,12.40
2017-09-18T21:42:40.461Z,12.40
2017-09-18T21:45:09.493Z,12.40
2017-09-18T21:47:37.734Z,12.40
2017-09-18T21:50:05.978Z,12.30
2017-09-18T21:52:34.245Z,12.30
2017-09-18T21:55:02.485Z,12.30
2017-09-18T21:57:30.741Z,12.30
2017-09-18T22:00:00.081Z,12.30
2017-09-18T22:02:28.313Z,12.30
2017-09-18T22:04:56.557Z,12.30
2017-09-18T22:07:24.837Z,12.30
2017-09-18T22:09:53.081Z,12.30
2017-09-18T22:12:21.321Z,12.30
2017-09-18T22:14:50.351Z,12.30
2017-09-18T22:17:18.742Z,12.30
2017-09-18T22:19:46.980Z,12.30
2017-09-18T22:22:17.390Z,12.30
2017-09-18T22:24:45.645Z,12.30
2017-09-18T22:27:13.894Z,12.30
2017-09-18T22:29:42.172Z,12.40
2017-09-18T22:32:10.406Z,12.40
2017-09-18T22:34:39.415Z,12.40
2017-09-18T22:37:07.686Z,12.40
2017-09-18T22:39:35.918Z,12.40
2017-09-18T22:42:04.638Z,12.30
2017-09-18T22:44:33.221Z,12.30
2017-09-18T22:47:02.245Z,12.30
2017-09-18T22:49:30.496Z,12.30
2017-09-18T22:51:58.761Z,12.30
2017-09-18T22:54:27.770Z,12.20
2017-09-18T22:56:56.013Z,12.20
2017-09-18T22:59:24.293Z,12.20
2017-09-18T23:01:52.570Z,12.20
2017-09-18T23:04:20.812Z,12.20
2017-09-18T23:06:49.573Z,12.20
2017-09-18T23:09:17.826Z,12.20
2017-09-18T23:11:46.130Z,12.20
2017-09-18T23:14:14.402Z,12.20
2017-09-18T23:16:42.650Z,12.20
2017-09-18T23:19:11.832Z,12.20
2017-09-18T23:21:40.108Z,12.20
2017-09-18T23:24:08.356Z,12.30
2017-09-18T23:26:36.602Z,12.20
2017-09-18T23:29:05.087Z,12.20
2017-09-18T23:31:33.341Z,12.20
2017-09-18T23:34:01.581Z,12.30
2017-09-18T23:36:29.890Z,12.30
2017-09-18T23:38:58.902Z,12.20
2017-09-18T23:41:27.160Z,12.20
2017-09-18T23:43:56.290Z,12.30
2017-09-18T23:46:24.546Z,12.20
2017-09-18T23:48:53.568Z,12.20
2017-09-18T23:51:22.319Z,12.20
2017-09-18T23:53:50.565Z,12.20
2017-09-18T23:56:18.810Z,12.30
2017-09-18T23:58:47.080Z,12.20
